sensor_id;sensor_type;location;lat;lon;timestamp;pressure;altitude;pressure_sealevel;temperature;humidity
37852;BME280;23691;52.486;4.650;2023-03-22T00:00:35;100818.44;;;10.46;80.64
37852;BME280;23691;52.486;4.650;2023-03-22T00:03:02;100807.75;;;10.46;80.41
37852;BME280;23691;52.486;4.650;2023-03-22T00:05:27;100796.75;;;10.49;80.60
37852;BME280;23691;52.486;4.650;2023-03-22T00:07:56;100798.41;;;10.50;80.48
37852;BME280;23691;52.486;4.650;2023-03-22T00:10:26;100795.38;;;10.53;80.09
37852;BME280;23691;52.486;4.650;2023-03-22T00:12:54;100790.56;;;10.57;80.33
37852;BME280;23691;52.486;4.650;2023-03-22T00:15:20;100785.03;;;10.58;80.03
37852;BME280;23691;52.486;4.650;2023-03-22T00:17:48;100778.84;;;10.58;79.89
37852;BME280;23691;52.486;4.650;2023-03-22T00:20:14;100781.38;;;10.59;79.90
37852;BME280;23691;52.486;4.650;2023-03-22T00:22:42;100776.00;;;10.59;79.84
37852;BME280;23691;52.486;4.650;2023-03-22T00:25:08;100781.19;;;10.61;79.77
37852;BME280;23691;52.486;4.650;2023-03-22T00:27:34;100776.69;;;10.61;79.76
37852;BME280;23691;52.486;4.650;2023-03-22T00:30:00;100769.66;;;10.60;79.70
37852;BME280;23691;52.486;4.650;2023-03-22T00:32:26;100769.50;;;10.62;79.70
37852;BME280;23691;52.486;4.650;2023-03-22T00:34:51;100764.97;;;10.62;79.66
37852;BME280;23691;52.486;4.650;2023-03-22T00:37:17;100764.28;;;10.60;79.67
37852;BME280;23691;52.486;4.650;2023-03-22T00:39:45;100775.00;;;10.60;79.74
37852;BME280;23691;52.486;4.650;2023-03-22T00:42:11;100770.47;;;10.61;79.65
37852;BME280;23691;52.486;4.650;2023-03-22T00:44:36;100757.97;;;10.61;79.55
37852;BME280;23691;52.486;4.650;2023-03-22T00:47:01;100766.81;;;10.62;79.43
37852;BME280;23691;52.486;4.650;2023-03-22T00:49:27;100761.47;;;10.62;79.41
37852;BME280;23691;52.486;4.650;2023-03-22T00:51:53;100755.28;;;10.61;79.52
37852;BME280;23691;52.486;4.650;2023-03-22T00:54:19;100752.63;;;10.61;79.63
37852;BME280;23691;52.486;4.650;2023-03-22T00:56:45;100755.09;;;10.63;79.38
37852;BME280;23691;52.486;4.650;2023-03-22T00:59:14;100755.97;;;10.63;79.50
37852;BME280;23691;52.486;4.650;2023-03-22T01:01:39;100747.94;;;10.63;79.20
37852;BME280;23691;52.486;4.650;2023-03-22T01:04:05;100744.25;;;10.64;79.56
37852;BME280;23691;52.486;4.650;2023-03-22T01:06:32;100735.19;;;10.65;79.46
37852;BME280;23691;52.486;4.650;2023-03-22T01:08:57;100742.41;;;10.65;79.54
37852;BME280;23691;52.486;4.650;2023-03-22T01:11:23;100735.03;;;10.67;79.14
37852;BME280;23691;52.486;4.650;2023-03-22T01:13:49;100732.22;;;10.68;79.45
37852;BME280;23691;52.486;4.650;2023-03-22T01:16:15;100731.34;;;10.68;79.44
37852;BME280;23691;52.486;4.650;2023-03-22T01:18:41;100731.19;;;10.69;79.52
37852;BME280;23691;52.486;4.650;2023-03-22T01:21:07;100723.16;;;10.69;79.48
37852;BME280;23691;52.486;4.650;2023-03-22T01:23:33;100718.50;;;10.71;79.65
37852;BME280;23691;52.486;4.650;2023-03-22T01:25:59;100712.47;;;10.69;79.64
37852;BME280;23691;52.486;4.650;2023-03-22T01:28:26;100707.13;;;10.69;79.79
37852;BME280;23691;52.486;4.650;2023-03-22T01:30:51;100700.94;;;10.69;79.48
37852;BME280;23691;52.486;4.650;2023-03-22T01:33:16;100698.25;;;10.69;79.83
37852;BME280;23691;52.486;4.650;2023-03-22T01:35:42;100697.25;;;10.70;79.77
37852;BME280;23691;52.486;4.650;2023-03-22T01:38:07;100699.75;;;10.71;80.06
37852;BME280;23691;52.486;4.650;2023-03-22T01:40:33;100692.22;;;10.75;79.96
37852;BME280;23691;52.486;4.650;2023-03-22T01:42:58;100681.50;;;10.75;80.03
37852;BME280;23691;52.486;4.650;2023-03-22T01:45:33;100683.19;;;10.76;80.13
37852;BME280;23691;52.486;4.650;2023-03-22T01:48:22;100680.53;;;10.76;80.46
37852;BME280;23691;52.486;4.650;2023-03-22T01:51:14;100682.69;;;10.81;80.21
37852;BME280;23691;52.486;4.650;2023-03-22T01:53:49;100676.66;;;10.79;80.10
37852;BME280;23691;52.486;4.650;2023-03-22T01:56:18;100678.53;;;10.78;80.07
37852;BME280;23691;52.486;4.650;2023-03-22T01:58:45;100674.97;;;10.78;80.11
37852;BME280;23691;52.486;4.650;2023-03-22T02:01:13;100666.94;;;10.78;80.17
37852;BME280;23691;52.486;4.650;2023-03-22T02:03:58;100654.59;;;10.77;80.21
37852;BME280;23691;52.486;4.650;2023-03-22T02:06:28;100656.94;;;10.71;80.31
37852;BME280;23691;52.486;4.650;2023-03-22T02:08:55;100655.25;;;10.70;80.36
37852;BME280;23691;52.486;4.650;2023-03-22T02:11:37;100647.06;;;10.72;80.52
37852;BME280;23691;52.486;4.650;2023-03-22T02:19:58;100625.66;;;10.72;80.33
37852;BME280;23691;52.486;4.650;2023-03-22T02:33:15;100621.31;;;10.63;80.38
37852;BME280;23691;52.486;4.650;2023-03-22T02:38:54;100617.97;;;10.61;80.42
37852;BME280;23691;52.486;4.650;2023-03-22T02:41:50;100606.81;;;10.57;80.28
37852;BME280;23691;52.486;4.650;2023-03-22T02:47:03;100596.13;;;10.49;80.51
37852;BME280;23691;52.486;4.650;2023-03-22T02:49:39;100599.78;;;10.48;80.51
37852;BME280;23691;52.486;4.650;2023-03-22T02:57:40;100589.13;;;10.40;80.61
37852;BME280;23691;52.486;4.650;2023-03-22T03:00:11;100590.28;;;10.37;80.66
37852;BME280;23691;52.486;4.650;2023-03-22T03:02:42;100590.44;;;10.36;80.90
37852;BME280;23691;52.486;4.650;2023-03-22T03:05:10;100576.41;;;10.34;80.84
37852;BME280;23691;52.486;4.650;2023-03-22T03:07:37;100582.09;;;10.30;80.83
37852;BME280;23691;52.486;4.650;2023-03-22T03:10:04;100576.06;;;10.28;80.74
37852;BME280;23691;52.486;4.650;2023-03-22T03:12:30;100571.06;;;10.34;80.90
37852;BME280;23691;52.486;4.650;2023-03-22T03:14:56;100560.88;;;10.37;80.75
37852;BME280;23691;52.486;4.650;2023-03-22T03:23:32;100570.72;;;10.28;80.75
37852;BME280;23691;52.486;4.650;2023-03-22T03:28:46;100563.84;;;10.26;81.11
37852;BME280;23691;52.486;4.650;2023-03-22T03:31:36;100557.19;;;10.30;81.06
37852;BME280;23691;52.486;4.650;2023-03-22T03:36:34;100536.47;;;10.32;81.21
37852;BME280;23691;52.486;4.650;2023-03-22T03:39:04;100553.88;;;10.36;81.04
37852;BME280;23691;52.486;4.650;2023-03-22T03:41:32;100542.81;;;10.39;81.20
37852;BME280;23691;52.486;4.650;2023-03-22T03:43:58;100549.81;;;10.40;81.36
37852;BME280;23691;52.486;4.650;2023-03-22T03:46:24;100541.81;;;10.40;81.06
37852;BME280;23691;52.486;4.650;2023-03-22T03:48:51;100547.16;;;10.40;81.26
37852;BME280;23691;52.486;4.650;2023-03-22T03:51:20;100551.31;;;10.43;81.25
37852;BME280;23691;52.486;4.650;2023-03-22T03:53:45;100558.50;;;10.42;81.17
37852;BME280;23691;52.486;4.650;2023-03-22T03:56:11;100559.34;;;10.43;81.22
37852;BME280;23691;52.486;4.650;2023-03-22T03:58:36;100550.34;;;10.44;81.32
37852;BME280;23691;52.486;4.650;2023-03-22T04:01:02;100548.13;;;10.47;81.29
37852;BME280;23691;52.486;4.650;2023-03-22T04:03:28;100545.31;;;10.49;81.21
37852;BME280;23691;52.486;4.650;2023-03-22T04:05:54;100540.78;;;10.49;81.43
37852;BME280;23691;52.486;4.650;2023-03-22T04:08:20;100534.09;;;10.53;80.95
37852;BME280;23691;52.486;4.650;2023-03-22T04:10:49;100549.13;;;10.55;81.21
37852;BME280;23691;52.486;4.650;2023-03-22T04:13:16;100533.06;;;10.55;81.07
37852;BME280;23691;52.486;4.650;2023-03-22T04:15:41;100531.91;;;10.57;81.21
37852;BME280;23691;52.486;4.650;2023-03-22T04:18:07;100522.84;;;10.58;81.04
37852;BME280;23691;52.486;4.650;2023-03-22T04:20:33;100532.56;;;10.59;80.81
37852;BME280;23691;52.486;4.650;2023-03-22T04:22:59;100534.22;;;10.60;80.85
37852;BME280;23691;52.486;4.650;2023-03-22T04:25:24;100522.53;;;10.61;80.89
37852;BME280;23691;52.486;4.650;2023-03-22T04:27:54;100516.31;;;10.61;80.65
37852;BME280;23691;52.486;4.650;2023-03-22T04:30:20;100531.22;;;10.63;80.85
37852;BME280;23691;52.486;4.650;2023-03-22T04:32:47;100525.88;;;10.63;80.78
37852;BME280;23691;52.486;4.650;2023-03-22T04:35:14;100520.34;;;10.65;80.86
37852;BME280;23691;52.486;4.650;2023-03-22T04:37:40;100517.31;;;10.68;80.73
37852;BME280;23691;52.486;4.650;2023-03-22T04:40:08;100514.00;;;10.66;80.69
37852;BME280;23691;52.486;4.650;2023-03-22T04:42:34;100514.63;;;10.68;80.71
37852;BME280;23691;52.486;4.650;2023-03-22T04:44:59;100502.09;;;10.68;80.81
37852;BME280;23691;52.486;4.650;2023-03-22T04:47:27;100499.44;;;10.68;80.94
37852;BME280;23691;52.486;4.650;2023-03-22T04:49:53;100492.22;;;10.69;80.62
37852;BME280;23691;52.486;4.650;2023-03-22T04:52:18;100492.03;;;10.70;80.55
37852;BME280;23691;52.486;4.650;2023-03-22T04:54:43;100496.41;;;10.71;80.63
37852;BME280;23691;52.486;4.650;2023-03-22T04:57:09;100475.00;;;10.71;80.71
37852;BME280;23691;52.486;4.650;2023-03-22T04:59:34;100485.34;;;10.74;80.79
37852;BME280;23691;52.486;4.650;2023-03-22T05:02:00;100476.66;;;10.72;80.76
37852;BME280;23691;52.486;4.650;2023-03-22T05:04:26;100473.97;;;10.72;80.79
37852;BME280;23691;52.486;4.650;2023-03-22T05:06:51;100479.31;;;10.72;80.82
37852;BME280;23691;52.486;4.650;2023-03-22T05:09:17;100479.16;;;10.74;80.91
37852;BME280;23691;52.486;4.650;2023-03-22T05:11:43;100481.84;;;10.74;80.67
37852;BME280;23691;52.486;4.650;2023-03-22T05:14:08;100475.47;;;10.75;80.80
37852;BME280;23691;52.486;4.650;2023-03-22T05:16:33;100470.97;;;10.76;80.84
37852;BME280;23691;52.486;4.650;2023-03-22T05:18:59;100473.66;;;10.76;80.98
37852;BME280;23691;52.486;4.650;2023-03-22T05:21:27;100481.84;;;10.74;80.91
37852;BME280;23691;52.486;4.650;2023-03-22T05:23:57;100481.19;;;10.72;81.02
37852;BME280;23691;52.486;4.650;2023-03-22T05:26:24;100476.66;;;10.72;81.11
37852;BME280;23691;52.486;4.650;2023-03-22T05:28:51;100471.50;;;10.71;81.17
37852;BME280;23691;52.486;4.650;2023-03-22T05:31:17;100461.63;;;10.71;80.94
37852;BME280;23691;52.486;4.650;2023-03-22T05:33:42;100458.13;;;10.71;81.30
37852;BME280;23691;52.486;4.650;2023-03-22T05:36:11;100459.78;;;10.72;81.08
37852;BME280;23691;52.486;4.650;2023-03-22T05:38:36;100462.28;;;10.73;81.18
37852;BME280;23691;52.486;4.650;2023-03-22T05:41:02;100457.75;;;10.74;81.15
37852;BME280;23691;52.486;4.650;2023-03-22T05:43:28;100451.22;;;10.77;81.16
37852;BME280;23691;52.486;4.650;2023-03-22T05:45:53;100451.22;;;10.77;81.13
37852;BME280;23691;52.486;4.650;2023-03-22T05:48:19;100443.34;;;10.75;80.88
37852;BME280;23691;52.486;4.650;2023-03-22T05:50:44;100443.19;;;10.77;81.00
37852;BME280;23691;52.486;4.650;2023-03-22T05:53:09;100445.88;;;10.77;80.85
37852;BME280;23691;52.486;4.650;2023-03-22T05:55:36;100449.72;;;10.74;80.60
37852;BME280;23691;52.486;4.650;2023-03-22T05:58:01;100451.59;;;10.73;80.65
37852;BME280;23691;52.486;4.650;2023-03-22T06:00:30;100444.22;;;10.76;80.69
37852;BME280;23691;52.486;4.650;2023-03-22T06:03:00;100444.69;;;10.79;80.44
37852;BME280;23691;52.486;4.650;2023-03-22T06:05:29;100449.00;;;10.80;80.24
37852;BME280;23691;52.486;4.650;2023-03-22T06:08:00;100444.31;;;10.82;80.15
37852;BME280;23691;52.486;4.650;2023-03-22T06:10:26;100450.34;;;10.84;80.18
37852;BME280;23691;52.486;4.650;2023-03-22T06:12:53;100438.28;;;10.88;79.98
37852;BME280;23691;52.486;4.650;2023-03-22T06:15:19;100445.94;;;10.91;79.72
37852;BME280;23691;52.486;4.650;2023-03-22T06:17:45;100443.75;;;10.95;79.48
37852;BME280;23691;52.486;4.650;2023-03-22T06:20:11;100432.72;;;10.98;79.32
37852;BME280;23691;52.486;4.650;2023-03-22T06:22:37;100442.88;;;11.03;79.42
37852;BME280;23691;52.486;4.650;2023-03-22T06:25:04;100429.81;;;11.08;79.25
37852;BME280;23691;52.486;4.650;2023-03-22T06:27:31;100432.28;;;11.09;78.87
37852;BME280;23691;52.486;4.650;2023-03-22T06:29:56;100426.25;;;11.07;78.84
37852;BME280;23691;52.486;4.650;2023-03-22T06:32:22;100433.47;;;11.07;78.68
37852;BME280;23691;52.486;4.650;2023-03-22T06:34:49;100441.50;;;11.07;78.74
37852;BME280;23691;52.486;4.650;2023-03-22T06:37:14;100448.34;;;11.09;78.44
37852;BME280;23691;52.486;4.650;2023-03-22T06:39:40;100437.47;;;11.11;78.28
37852;BME280;23691;52.486;4.650;2023-03-22T06:42:06;100437.31;;;11.12;77.86
37852;BME280;23691;52.486;4.650;2023-03-22T06:44:31;100435.09;;;11.16;77.87
37852;BME280;23691;52.486;4.650;2023-03-22T06:46:56;100432.03;;;11.19;77.67
37852;BME280;23691;52.486;4.650;2023-03-22T06:49:22;100425.34;;;11.23;77.50
37852;BME280;23691;52.486;4.650;2023-03-22T06:51:48;100422.28;;;11.26;77.99
37852;BME280;23691;52.486;4.650;2023-03-22T06:54:13;100426.66;;;11.27;77.72
37852;BME280;23691;52.486;4.650;2023-03-22T06:56:41;100434.03;;;11.25;78.00
37852;BME280;23691;52.486;4.650;2023-03-22T06:59:06;100428.66;;;11.25;77.65
37852;BME280;23691;52.486;4.650;2023-03-22T07:01:32;100432.53;;;11.23;77.85
37852;BME280;23691;52.486;4.650;2023-03-22T07:03:57;100433.38;;;11.23;78.07
37852;BME280;23691;52.486;4.650;2023-03-22T07:06:22;100406.38;;;11.25;77.98
37852;BME280;23691;52.486;4.650;2023-03-22T07:08:48;100420.63;;;11.25;78.02
37852;BME280;23691;52.486;4.650;2023-03-22T07:11:13;100411.75;;;11.25;78.21
37852;BME280;23691;52.486;4.650;2023-03-22T07:13:38;100412.06;;;11.30;77.99
37852;BME280;23691;52.486;4.650;2023-03-22T07:16:05;100415.56;;;11.30;77.99
37852;BME280;23691;52.486;4.650;2023-03-22T07:18:30;100417.06;;;11.33;77.94
37852;BME280;23691;52.486;4.650;2023-03-22T07:20:56;100421.59;;;11.32;77.64
37852;BME280;23691;52.486;4.650;2023-03-22T07:23:22;100416.53;;;11.37;77.47
37852;BME280;23691;52.486;4.650;2023-03-22T07:25:48;100420.97;;;11.45;77.46
37852;BME280;23691;52.486;4.650;2023-03-22T07:28:14;100414.72;;;11.53;77.10
37852;BME280;23691;52.486;4.650;2023-03-22T07:30:40;100415.66;;;11.60;77.01
37852;BME280;23691;52.486;4.650;2023-03-22T07:33:07;100424.81;;;11.66;77.00
37852;BME280;23691;52.486;4.650;2023-03-22T07:35:33;100417.03;;;11.71;76.53
37852;BME280;23691;52.486;4.650;2023-03-22T07:38:00;100412.34;;;11.73;76.68
37852;BME280;23691;52.486;4.650;2023-03-22T07:40:26;100408.47;;;11.75;76.57
37852;BME280;23691;52.486;4.650;2023-03-22T07:42:51;100421.69;;;11.77;76.61
37852;BME280;23691;52.486;4.650;2023-03-22T07:45:17;100413.81;;;11.75;76.39
37852;BME280;23691;52.486;4.650;2023-03-22T07:47:43;100413.00;;;11.75;76.30
37852;BME280;23691;52.486;4.650;2023-03-22T07:50:09;100412.50;;;11.71;76.77
37852;BME280;23691;52.486;4.650;2023-03-22T07:52:41;100416.59;;;11.67;76.96
37852;BME280;23691;52.486;4.650;2023-03-22T07:55:09;100420.28;;;11.66;77.12
37852;BME280;23691;52.486;4.650;2023-03-22T07:57:35;100424.81;;;11.66;77.27
37852;BME280;23691;52.486;4.650;2023-03-22T08:00:00;100425.84;;;11.65;77.27
37852;BME280;23691;52.486;4.650;2023-03-22T08:02:26;100416.09;;;11.64;77.59
37852;BME280;23691;52.486;4.650;2023-03-22T08:04:52;100417.78;;;11.65;78.00
37852;BME280;23691;52.486;4.650;2023-03-22T08:07:21;100412.44;;;11.65;77.89
37852;BME280;23691;52.486;4.650;2023-03-22T08:09:49;100424.50;;;11.60;78.17
37852;BME280;23691;52.486;4.650;2023-03-22T08:12:14;100420.53;;;11.56;78.35
37852;BME280;23691;52.486;4.650;2023-03-22T08:14:40;100412.97;;;11.60;78.62
37852;BME280;23691;52.486;4.650;2023-03-22T08:17:05;100403.44;;;11.57;78.61
37852;BME280;23691;52.486;4.650;2023-03-22T08:19:32;100389.22;;;11.57;78.99
37852;BME280;23691;52.486;4.650;2023-03-22T08:21:58;100411.88;;;11.54;79.41
37852;BME280;23691;52.486;4.650;2023-03-22T08:24:24;100415.91;;;11.50;79.75
37852;BME280;23691;52.486;4.650;2023-03-22T08:26:50;100414.22;;;11.49;80.01
37852;BME280;23691;52.486;4.650;2023-03-22T08:29:15;100406.75;;;11.45;80.42
37852;BME280;23691;52.486;4.650;2023-03-22T08:31:42;100402.59;;;11.42;80.67
37852;BME280;23691;52.486;4.650;2023-03-22T08:34:07;100414.00;;;11.36;80.83
37852;BME280;23691;52.486;4.650;2023-03-22T08:36:33;100411.41;;;11.28;81.16
37852;BME280;23691;52.486;4.650;2023-03-22T08:38:58;100399.88;;;11.27;81.45
37852;BME280;23691;52.486;4.650;2023-03-22T08:41:25;100389.31;;;11.26;81.71
37852;BME280;23691;52.486;4.650;2023-03-22T08:43:50;100399.09;;;11.18;82.34
37852;BME280;23691;52.486;4.650;2023-03-22T08:46:16;100416.63;;;11.21;82.08
37852;BME280;23691;52.486;4.650;2023-03-22T08:48:41;100413.31;;;11.19;82.57
37852;BME280;23691;52.486;4.650;2023-03-22T08:51:19;100401.41;;;11.22;82.86
37852;BME280;23691;52.486;4.650;2023-03-22T08:53:45;100400.22;;;11.24;82.75
37852;BME280;23691;52.486;4.650;2023-03-22T08:56:11;100401.34;;;11.30;82.81
37852;BME280;23691;52.486;4.650;2023-03-22T08:58:39;100402.63;;;11.34;82.54
37852;BME280;23691;52.486;4.650;2023-03-22T09:01:05;100395.25;;;11.36;82.66
37852;BME280;23691;52.486;4.650;2023-03-22T09:03:30;100389.25;;;11.34;83.03
37852;BME280;23691;52.486;4.650;2023-03-22T09:05:55;100391.94;;;11.34;83.19
37852;BME280;23691;52.486;4.650;2023-03-22T09:08:21;100400.44;;;11.37;83.10
37852;BME280;23691;52.486;4.650;2023-03-22T09:10:47;100407.16;;;11.33;83.07
37852;BME280;23691;52.486;4.650;2023-03-22T09:13:16;100401.16;;;11.31;83.24
37852;BME280;23691;52.486;4.650;2023-03-22T09:15:42;100396.28;;;11.35;83.21
37852;BME280;23691;52.486;4.650;2023-03-22T09:18:09;100391.09;;;11.33;83.09
37852;BME280;23691;52.486;4.650;2023-03-22T09:20:35;100403.66;;;11.33;83.32
37852;BME280;23691;52.486;4.650;2023-03-22T09:23:00;100412.16;;;11.36;83.46
37852;BME280;23691;52.486;4.650;2023-03-22T09:25:25;100409.31;;;11.38;83.17
37852;BME280;23691;52.486;4.650;2023-03-22T09:27:51;100413.09;;;11.44;83.48
37852;BME280;23691;52.486;4.650;2023-03-22T09:30:16;100394.34;;;11.44;83.47
37852;BME280;23691;52.486;4.650;2023-03-22T09:32:42;100411.63;;;11.41;83.55
37852;BME280;23691;52.486;4.650;2023-03-22T09:35:07;100415.31;;;11.40;83.57
37852;BME280;23691;52.486;4.650;2023-03-22T09:37:33;100414.13;;;11.43;83.64
37852;BME280;23691;52.486;4.650;2023-03-22T09:39:59;100380.97;;;11.44;83.81
37852;BME280;23691;52.486;4.650;2023-03-22T09:42:32;100402.50;;;11.50;83.70
37852;BME280;23691;52.486;4.650;2023-03-22T09:45:01;100408.81;;;11.57;83.62
37852;BME280;23691;52.486;4.650;2023-03-22T09:47:34;100407.41;;;11.61;83.47
37852;BME280;23691;52.486;4.650;2023-03-22T09:50:23;100414.81;;;11.59;83.60
37852;BME280;23691;52.486;4.650;2023-03-22T09:52:49;100417.56;;;11.51;83.39
37852;BME280;23691;52.486;4.650;2023-03-22T09:55:19;100416.28;;;11.47;83.40
37852;BME280;23691;52.486;4.650;2023-03-22T09:57:54;100411.91;;;11.46;83.60
37852;BME280;23691;52.486;4.650;2023-03-22T10:06:06;100420.53;;;11.56;83.51
37852;BME280;23691;52.486;4.650;2023-03-22T10:16:48;100419.09;;;11.83;83.38
37852;BME280;23691;52.486;4.650;2023-03-22T10:19:26;100405.19;;;11.88;83.00
37852;BME280;23691;52.486;4.650;2023-03-22T10:21:55;100410.38;;;11.90;83.04
37852;BME280;23691;52.486;4.650;2023-03-22T10:24:27;100397.06;;;11.96;83.03
37852;BME280;23691;52.486;4.650;2023-03-22T10:26:54;100377.28;;;11.97;82.58
37852;BME280;23691;52.486;4.650;2023-03-22T10:29:38;100382.19;;;11.94;82.92
37852;BME280;23691;52.486;4.650;2023-03-22T10:32:18;100407.59;;;11.98;82.71
37852;BME280;23691;52.486;4.650;2023-03-22T10:34:43;100395.59;;;12.09;82.38
37852;BME280;23691;52.486;4.650;2023-03-22T10:37:16;100391.97;;;12.16;82.30
37852;BME280;23691;52.486;4.650;2023-03-22T10:39:48;100376.34;;;12.20;82.29
37852;BME280;23691;52.486;4.650;2023-03-22T10:42:24;100372.91;;;12.26;81.95
37852;BME280;23691;52.486;4.650;2023-03-22T10:44:57;100393.22;;;12.35;82.06
37852;BME280;23691;52.486;4.650;2023-03-22T10:47:43;100387.22;;;12.48;81.87
37852;BME280;23691;52.486;4.650;2023-03-22T10:50:18;100380.97;;;12.62;81.79
37852;BME280;23691;52.486;4.650;2023-03-22T10:52:58;100363.91;;;12.85;81.33
37852;BME280;23691;52.486;4.650;2023-03-22T10:55:25;100375.97;;;12.96;80.65
37852;BME280;23691;52.486;4.650;2023-03-22T10:58:03;100375.53;;;12.92;80.65
37852;BME280;23691;52.486;4.650;2023-03-22T11:00:34;100383.63;;;12.99;80.54
37852;BME280;23691;52.486;4.650;2023-03-22T11:03:00;100396.81;;;12.94;80.40
37852;BME280;23691;52.486;4.650;2023-03-22T11:05:29;100405.00;;;12.85;80.21
37852;BME280;23691;52.486;4.650;2023-03-22T11:07:55;100406.13;;;12.76;80.67
37852;BME280;23691;52.486;4.650;2023-03-22T11:10:31;100421.16;;;12.56;79.97
37852;BME280;23691;52.486;4.650;2023-03-22T11:13:10;100424.13;;;12.46;80.30
37852;BME280;23691;52.486;4.650;2023-03-22T11:15:39;100413.31;;;12.39;80.29
37852;BME280;23691;52.486;4.650;2023-03-22T11:18:10;100442.56;;;12.34;80.30
37852;BME280;23691;52.486;4.650;2023-03-22T11:20:39;100434.41;;;12.28;80.15
37852;BME280;23691;52.486;4.650;2023-03-22T11:23:06;100445.69;;;12.23;80.75
37852;BME280;23691;52.486;4.650;2023-03-22T11:25:37;100442.72;;;12.18;80.59
37852;BME280;23691;52.486;4.650;2023-03-22T11:28:18;100440.59;;;12.13;80.52
37852;BME280;23691;52.486;4.650;2023-03-22T11:31:11;100440.97;;;12.10;80.69
37852;BME280;23691;52.486;4.650;2023-03-22T11:33:52;100433.31;;;12.07;80.78
37852;BME280;23691;52.486;4.650;2023-03-22T11:36:19;100438.22;;;12.03;80.54
37852;BME280;23691;52.486;4.650;2023-03-22T11:38:44;100430.34;;;12.02;80.54
37852;BME280;23691;52.486;4.650;2023-03-22T11:41:20;100435.72;;;12.02;80.74
37852;BME280;23691;52.486;4.650;2023-03-22T11:43:49;100451.13;;;12.00;80.55
37852;BME280;23691;52.486;4.650;2023-03-22T11:46:16;100432.91;;;11.95;80.60
37852;BME280;23691;52.486;4.650;2023-03-22T11:48:45;100435.81;;;11.94;80.88
37852;BME280;23691;52.486;4.650;2023-03-22T11:51:13;100440.78;;;11.97;81.07
37852;BME280;23691;52.486;4.650;2023-03-22T11:53:42;100431.81;;;12.05;80.82
37852;BME280;23691;52.486;4.650;2023-03-22T11:56:11;100452.25;;;12.06;80.87
37852;BME280;23691;52.486;4.650;2023-03-22T11:58:49;100439.50;;;12.08;80.80
37852;BME280;23691;52.486;4.650;2023-03-22T12:01:26;100429.59;;;12.08;80.68
37852;BME280;23691;52.486;4.650;2023-03-22T12:03:55;100437.19;;;12.05;80.66
37852;BME280;23691;52.486;4.650;2023-03-22T12:06:23;100435.59;;;12.10;80.77
37852;BME280;23691;52.486;4.650;2023-03-22T12:09:00;100428.03;;;12.14;80.57
37852;BME280;23691;52.486;4.650;2023-03-22T12:11:35;100429.25;;;12.11;80.74
37852;BME280;23691;52.486;4.650;2023-03-22T12:14:33;100431.38;;;12.16;80.57
37852;BME280;23691;52.486;4.650;2023-03-22T12:17:17;100425.16;;;12.15;80.63
37852;BME280;23691;52.486;4.650;2023-03-22T12:22:35;100437.09;;;12.13;80.45
37852;BME280;23691;52.486;4.650;2023-03-22T12:25:02;100427.84;;;12.15;80.68
37852;BME280;23691;52.486;4.650;2023-03-22T12:27:38;100423.94;;;12.18;80.86
37852;BME280;23691;52.486;4.650;2023-03-22T12:30:15;100419.06;;;12.21;80.51
37852;BME280;23691;52.486;4.650;2023-03-22T12:32:50;100425.72;;;12.25;80.41
37852;BME280;23691;52.486;4.650;2023-03-22T12:35:20;100415.84;;;12.26;80.44
37852;BME280;23691;52.486;4.650;2023-03-22T12:37:51;100413.81;;;12.28;80.32
37852;BME280;23691;52.486;4.650;2023-03-22T12:40:22;100418.13;;;12.29;80.36
37852;BME280;23691;52.486;4.650;2023-03-22T12:45:37;100418.03;;;12.37;80.33
37852;BME280;23691;52.486;4.650;2023-03-22T12:48:18;100414.63;;;12.43;80.21
37852;BME280;23691;52.486;4.650;2023-03-22T12:50:52;100417.47;;;12.42;80.14
37852;BME280;23691;52.486;4.650;2023-03-22T12:53:21;100424.69;;;12.41;80.20
37852;BME280;23691;52.486;4.650;2023-03-22T12:55:51;100421.19;;;12.41;80.23
37852;BME280;23691;52.486;4.650;2023-03-22T12:58:22;100424.22;;;12.38;80.22
37852;BME280;23691;52.486;4.650;2023-03-22T13:01:05;100415.16;;;12.39;80.08
37852;BME280;23691;52.486;4.650;2023-03-22T13:03:45;100403.06;;;12.43;80.16
37852;BME280;23691;52.486;4.650;2023-03-22T13:06:28;100408.31;;;12.51;80.05
37852;BME280;23691;52.486;4.650;2023-03-22T13:09:16;100420.69;;;12.52;79.92
37852;BME280;23691;52.486;4.650;2023-03-22T13:19:53;100408.66;;;12.63;79.61
37852;BME280;23691;52.486;4.650;2023-03-22T13:27:53;100396.72;;;12.65;79.70
37852;BME280;23691;52.486;4.650;2023-03-22T13:32:48;100406.69;;;12.72;79.49
37852;BME280;23691;52.486;4.650;2023-03-22T13:35:26;100414.00;;;12.78;79.37
37852;BME280;23691;52.486;4.650;2023-03-22T13:37:55;100422.75;;;12.86;79.31
37852;BME280;23691;52.486;4.650;2023-03-22T13:40:41;100403.78;;;12.88;79.35
37852;BME280;23691;52.486;4.650;2023-03-22T13:43:19;100403.56;;;12.89;79.55
37852;BME280;23691;52.486;4.650;2023-03-22T13:48:42;100407.66;;;12.85;79.94
37852;BME280;23691;52.486;4.650;2023-03-22T13:51:11;100401.75;;;12.90;80.12
37852;BME280;23691;52.486;4.650;2023-03-22T13:53:40;100393.94;;;12.95;80.02
37852;BME280;23691;52.486;4.650;2023-03-22T13:56:10;100396.09;;;13.06;79.93
37852;BME280;23691;52.486;4.650;2023-03-22T13:58:51;100370.09;;;13.07;79.69
37852;BME280;23691;52.486;4.650;2023-03-22T14:01:27;100374.56;;;13.00;79.68
37852;BME280;23691;52.486;4.650;2023-03-22T14:03:57;100379.31;;;12.98;79.87
37852;BME280;23691;52.486;4.650;2023-03-22T14:06:34;100366.78;;;13.05;79.96
37852;BME280;23691;52.486;4.650;2023-03-22T14:09:13;100377.38;;;13.13;79.63
37852;BME280;23691;52.486;4.650;2023-03-22T14:11:52;100363.13;;;13.13;79.62
37852;BME280;23691;52.486;4.650;2023-03-22T14:14:33;100363.03;;;13.06;79.78
37852;BME280;23691;52.486;4.650;2023-03-22T14:17:12;100356.34;;;12.95;79.94